Time;durP1;ratioP1;P1;durP2;ratioP2;P2;SDS_P1;SDS_P2;PMS_P1;PMS_P2;Temp;Humidity;BMP_temperature;BMP_pressure;BME280_temperature;BME280_humidity;BME280_pressure;Samples;Min_cycle;Max_cycle;Signal;HPM_P1;HPM_P2
2021/11/30 08:52:32;;;;;;;3.37;2.40;;;;;;;-0.70;100.00;98691.59;5088157;27;20605;-80
2021/11/30 08:54:59;;;;;;;4.27;3.30;;;;;;;-0.64;100.00;98676.91;5068700;28;20100;-80
2021/11/30 08:57:27;;;;;;;3.37;2.67;;;;;;;-0.50;100.00;98691.78;5069335;28;20106;-80
2021/11/30 08:59:55;;;;;;;3.07;1.97;;;;;;;-0.54;100.00;98693.88;5088841;28;20114;-80
2021/11/30 09:02:24;;;;;;;2.10;1.90;;;;;;;-0.45;100.00;98708.28;5089368;28;20102;-80
2021/11/30 09:04:51;;;;;;;5.93;2.70;;;;;;;-0.39;100.00;98697.13;5088229;28;20044;-79
2021/11/30 09:07:18;;;;;;;2.67;2.33;;;;;;;-0.45;100.00;98697.59;5089388;28;20309;-80
2021/11/30 09:09:48;;;;;;;4.23;2.77;;;;;;;-0.50;100.00;98692.63;5088743;28;20487;-80
2021/11/30 09:12:17;;;;;;;3.33;2.65;;;;;;;-0.47;100.00;98708.41;5089201;28;20474;-80
2021/11/30 09:14:45;;;;;;;4.70;2.50;;;;;;;-0.40;100.00;98706.94;5089072;28;20044;-80
2021/11/30 09:17:12;;;;;;;2.30;2.10;;;;;;;-0.51;100.00;98700.78;5087926;28;20181;-81
2021/11/30 09:19:40;;;;;;;4.50;2.45;;;;;;;-0.46;100.00;98678.06;5085260;28;20529;-81
2021/11/30 09:22:07;;;;;;;3.53;2.55;;;;;;;-0.51;100.00;98679.41;5086949;28;20048;-81
2021/11/30 09:24:34;;;;;;;6.20;2.92;;;;;;;-0.55;100.00;98679.66;5086953;28;20045;-82
2021/11/30 09:27:02;;;;;;;6.50;2.70;;;;;;;-0.48;100.00;98696.03;5087826;28;20047;-83
2021/11/30 09:29:29;;;;;;;2.43;2.10;;;;;;;-0.46;100.00;98688.75;5088106;28;20048;-83
2021/11/30 09:31:55;;;;;;;5.30;2.40;;;;;;;-0.30;100.00;98692.81;5086812;28;20049;-84
2021/11/30 09:34:24;;;;;;;3.50;2.17;;;;;;;-0.28;100.00;98675.69;5088831;28;20044;-84
2021/11/30 09:36:53;;;;;;;4.20;2.70;;;;;;;-0.25;100.00;98671.91;5088945;28;20497;-85
2021/11/30 09:39:21;;;;;;;3.03;2.13;;;;;;;-0.21;100.00;98673.34;5088545;28;20048;-85
2021/11/30 09:41:49;;;;;;;6.68;3.50;;;;;;;-0.29;100.00;98662.47;5087346;28;20388;-86
2021/11/30 09:44:18;;;;;;;5.95;3.00;;;;;;;-0.24;100.00;98669.13;5089073;28;20063;-86
2021/11/30 09:46:45;;;;;;;8.05;3.30;;;;;;;-0.19;100.00;98666.91;5089640;28;20418;-87
2021/11/30 09:49:13;;;;;;;4.32;3.22;;;;;;;-0.11;100.00;98660.06;5070494;28;20411;-87
2021/11/30 09:51:40;;;;;;;4.03;2.47;;;;;;;-0.24;100.00;98631.72;5068948;28;20389;-86
2021/11/30 09:54:08;;;;;;;6.25;3.13;;;;;;;-0.24;100.00;98620.16;5069033;28;20052;-87
2021/11/30 09:56:35;;;;;;;5.47;2.83;;;;;;;-0.15;100.00;98655.94;5067748;28;20049;-87
2021/11/30 09:59:02;;;;;;;4.57;2.53;;;;;;;-0.19;100.00;98642.84;5068008;28;20219;-87
2021/11/30 10:01:30;;;;;;;4.18;2.30;;;;;;;-0.23;100.00;98632.56;5068689;28;20076;-86
2021/11/30 10:03:58;;;;;;;4.55;3.22;;;;;;;-0.13;100.00;98616.59;5054816;28;20047;-86
2021/11/30 10:06:25;;;;;;;3.35;2.50;;;;;;;0.01;100.00;98636.81;5055225;28;20471;-85
2021/11/30 10:08:55;;;;;;;4.55;2.90;;;;;;;-0.08;100.00;98620.56;5055151;28;20053;-85
2021/11/30 10:11:31;;;;;;;3.50;2.45;;;;;;;-0.17;100.00;98624.03;5054855;28;20077;-85
2021/11/30 10:14:14;;;;;;;5.22;2.58;;;;;;;-0.12;100.00;98620.94;5053204;28;20037;-84
2021/11/30 10:17:03;;;;;;;3.78;2.65;;;;;;;-0.23;100.00;98624.53;5047041;28;20048;-84
2021/11/30 10:19:30;;;;;;;4.25;2.20;;;;;;;-0.11;100.00;98617.31;5054522;28;20053;-84
2021/11/30 10:21:57;;;;;;;3.75;2.42;;;;;;;-0.13;100.00;98613.94;5054631;28;20052;-83
2021/11/30 10:24:24;;;;;;;2.85;2.47;;;;;;;-0.20;100.00;98613.59;5054543;28;20053;-83
2021/11/30 10:26:56;;;;;;;3.55;2.40;;;;;;;-0.11;100.00;98611.97;5054513;28;20045;-83
2021/11/30 10:29:23;;;;;;;5.20;2.50;;;;;;;-0.23;100.00;98600.50;5054280;28;20405;-83
2021/11/30 10:31:54;;;;;;;2.30;1.90;;;;;;;-0.14;100.00;98610.41;5052815;28;20045;-83
2021/11/30 10:34:23;;;;;;;3.58;2.25;;;;;;;0.03;100.00;98610.78;5053722;28;20060;-82
2021/11/30 10:36:53;;;;;;;4.28;2.20;;;;;;;-0.23;100.00;98608.50;5054218;28;20496;-82
2021/11/30 10:39:23;;;;;;;2.22;2.03;;;;;;;-0.13;100.00;98587.22;5053415;28;20139;-82
2021/11/30 10:41:51;;;;;;;;;;;;;;;0.05;100.00;98595.47;5054417;28;20056;-82
2021/11/30 10:44:28;;;;;;;3.33;1.83;;;;;;;-0.12;100.00;98578.19;5053833;28;20351;-82
2021/11/30 10:47:08;;;;;;;3.03;2.43;;;;;;;-0.13;100.00;98598.75;5052490;28;20095;-82
2021/11/30 10:49:35;;;;;;;5.40;2.20;;;;;;;-0.05;100.00;98603.44;5047769;28;20041;-82
2021/11/30 10:52:02;;;;;;;2.88;1.85;;;;;;;-0.17;100.00;98597.31;5053703;28;20045;-81
2021/11/30 10:54:36;;;;;;;3.20;1.38;;;;;;;0.04;100.00;98604.47;5053717;28;20045;-81
2021/11/30 10:57:04;;;;;;;3.05;1.83;;;;;;;-0.08;100.00;98582.31;5054128;28;20057;-80
2021/11/30 10:59:31;;;;;;;3.60;1.88;;;;;;;0.13;100.00;98590.31;5053593;28;20411;-80
2021/11/30 11:01:59;;;;;;;2.00;1.50;;;;;;;0.00;100.00;98577.19;5053770;28;20057;-80
2021/11/30 11:04:29;;;;;;;3.40;1.73;;;;;;;-0.13;100.00;98581.88;5051413;28;20045;-80
2021/11/30 11:07:06;;;;;;;;;;;;;;;0.08;100.00;98596.06;5048452;28;20072;-80
2021/11/30 11:09:39;;;;;;;2.22;1.80;;;;;;;0.03;100.00;98576.91;5053476;28;19920;-81
2021/11/30 11:12:08;;;;;;;5.70;2.47;;;;;;;-0.15;100.00;98562.44;5053471;28;20065;-81
2021/11/30 11:14:45;;;;;;;2.83;2.13;;;;;;;-0.01;100.00;98573.63;5053052;28;20393;-81
2021/11/30 11:17:27;;;;;;;3.15;1.73;;;;;;;0.02;100.00;98579.72;5053261;28;20135;-81
2021/11/30 11:19:54;;;;;;;2.58;2.00;;;;;;;0.06;100.00;98562.41;5051006;28;20076;-81
2021/11/30 11:22:23;;;;;;;3.08;1.60;;;;;;;0.02;100.00;98566.34;5052957;28;20069;-81
2021/11/30 11:24:51;;;;;;;2.10;1.35;;;;;;;0.04;100.00;98556.38;5053295;28;20056;-81
2021/11/30 11:27:18;;;;;;;1.20;1.10;;;;;;;-0.19;100.00;98556.53;5052567;28;20048;-81
2021/11/30 11:29:46;;;;;;;1.75;1.50;;;;;;;-0.15;100.00;98551.75;5052947;28;20049;-81
2021/11/30 11:32:14;;;;;;;6.05;1.77;;;;;;;-0.17;100.00;98565.25;5053205;28;20342;-82
2021/11/30 11:34:41;;;;;;;2.33;1.35;;;;;;;0.06;100.00;98557.06;5052684;28;20049;-82
2021/11/30 11:37:10;;;;;;;1.63;1.52;;;;;;;-0.03;100.00;98553.34;5051478;28;20052;-82
2021/11/30 11:39:37;;;;;;;3.20;1.13;;;;;;;0.07;100.00;98553.41;5052278;28;20044;-82
2021/11/30 11:42:06;;;;;;;1.23;1.13;;;;;;;0.24;100.00;98555.47;5053444;28;20067;-83
2021/11/30 11:44:36;;;;;;;2.67;1.40;;;;;;;0.04;100.00;98554.53;5052635;28;20135;-83
2021/11/30 11:47:08;;;;;;;1.50;1.40;;;;;;;0.12;100.00;98541.34;5047999;28;20040;-83
2021/11/30 11:49:39;;;;;;;1.88;1.63;;;;;;;0.02;100.00;98553.00;5052031;28;20468;-83
2021/11/30 11:52:18;;;;;;;2.63;1.50;;;;;;;-0.03;100.00;98561.38;5052440;28;20048;-83
2021/11/30 11:55:00;;;;;;;1.73;1.45;;;;;;;0.13;100.00;98547.53;5052921;28;20140;-83
2021/11/30 11:57:30;;;;;;;2.50;1.48;;;;;;;0.25;100.00;98569.69;5052464;28;20492;-83
2021/11/30 12:00:15;;;;;;;1.48;1.20;;;;;;;0.14;100.00;98541.22;5052806;28;20152;-82
2021/11/30 12:02:51;;;;;;;1.38;1.13;;;;;;;0.02;100.00;98528.94;5052676;28;20053;-82
2021/11/30 12:05:39;;;;;;;2.33;1.33;;;;;;;0.14;100.00;98543.91;5049073;28;20507;-81
2021/11/30 12:08:18;;;;;;;1.65;1.40;;;;;;;0.11;100.00;98553.03;5052213;28;20103;-82
2021/11/30 12:10:45;;;;;;;1.65;1.20;;;;;;;0.18;100.00;98556.00;5052369;28;20056;-83
2021/11/30 12:13:22;;;;;;;2.17;1.65;;;;;;;-0.05;100.00;98561.50;5052379;28;20049;-83
2021/11/30 12:16:04;;;;;;;4.47;2.43;;;;;;;-0.04;100.00;98549.84;5051861;28;20056;-83
2021/11/30 12:18:40;;;;;;;2.27;1.70;;;;;;;-0.03;100.00;98529.31;5052429;28;20048;-83
2021/11/30 12:21:17;;;;;;;1.83;1.23;;;;;;;-0.08;100.00;98527.03;5049380;28;20049;-82
2021/11/30 12:23:47;;;;;;;2.30;1.50;;;;;;;0.05;100.00;98531.34;5049891;28;20044;-82
2021/11/30 12:26:34;;;;;;;3.22;1.35;;;;;;;0.05;100.00;98501.94;5051878;28;20041;-82
2021/11/30 12:29:03;;;;;;;2.20;1.35;;;;;;;0.08;100.00;98523.06;5051535;28;20059;-81
2021/11/30 12:31:32;;;;;;;1.58;1.48;;;;;;;-0.02;100.00;98531.00;5052849;28;20049;-81
2021/11/30 12:34:03;;;;;;;1.58;1.45;;;;;;;0.03;100.00;98520.78;5053597;28;20455;-81
2021/11/30 12:36:36;;;;;;;3.10;1.50;;;;;;;0.16;100.00;98521.38;5052328;28;20051;-81
2021/11/30 12:39:08;;;;;;;2.37;2.10;;;;;;;0.12;100.00;98538.69;5048751;28;20144;-81
2021/11/30 12:41:38;;;;;;;2.10;1.90;;;;;;;0.10;100.00;98505.03;5050903;28;20044;-81
2021/11/30 12:44:14;;;;;;;;;;;;;;;0.21;100.00;98536.19;5046470;28;20056;-82
2021/11/30 12:46:46;;;;;;;2.00;1.50;;;;;;;0.20;100.00;98524.66;5032144;28;19921;-81
2021/11/30 12:49:29;;;;;;;2.50;1.73;;;;;;;0.22;100.00;98544.06;5032320;28;20063;-81
2021/11/30 12:52:08;;;;;;;3.08;1.70;;;;;;;0.39;100.00;98531.88;5050049;28;20476;-81
2021/11/30 12:54:35;;;;;;;3.60;1.60;;;;;;;0.41;100.00;98539.78;5051871;28;20480;-81
2021/11/30 12:57:04;;;;;;;3.80;2.37;;;;;;;0.34;100.00;98521.59;5050603;28;20084;-81
2021/11/30 12:59:55;;;;;;;5.05;2.05;;;;;;;0.51;100.00;98541.50;5048162;28;20049;-81
2021/11/30 13:02:25;;;;;;;2.15;1.50;;;;;;;0.52;100.00;98540.50;5050776;28;20056;-80
2021/11/30 13:04:55;;;;;;;9.68;4.47;;;;;;;0.59;100.00;98521.22;5051309;28;20049;-81
2021/11/30 13:07:27;;;;;;;2.08;1.63;;;;;;;0.57;100.00;98509.81;5050927;28;20052;-81
2021/11/30 13:10:01;;;;;;;2.88;1.73;;;;;;;0.61;100.00;98506.75;5051811;28;20052;-81
2021/11/30 13:12:30;;;;;;;2.67;1.77;;;;;;;0.73;100.00;98520.00;5051016;28;20049;-81
2021/11/30 13:14:59;;;;;;;2.73;1.30;;;;;;;0.85;100.00;98513.53;5049092;28;20080;-82
2021/11/30 13:17:30;;;;;;;1.37;1.27;;;;;;;0.92;100.00;98524.53;5042204;28;20333;-81
2021/11/30 13:19:57;;;;;;;1.75;1.48;;;;;;;1.11;100.00;98537.94;5051728;28;20049;-83
2021/11/30 13:22:28;;;;;;;2.15;1.30;;;;;;;1.06;100.00;98502.72;5051464;28;20052;-84
2021/11/30 13:25:01;;;;;;;1.52;1.27;;;;;;;1.14;100.00;98520.75;5049996;28;20049;-84
2021/11/30 13:27:34;;;;;;;1.38;0.88;;;;;;;1.08;100.00;98499.91;5051547;28;20061;-85
2021/11/30 13:30:05;;;;;;;0.80;0.80;;;;;;;1.22;100.00;98516.38;5052259;28;20156;-85
2021/11/30 13:32:34;;;;;;;1.02;0.85;;;;;;;1.21;100.00;98513.84;5048881;28;20556;-85
2021/11/30 13:35:07;;;;;;;1.15;1.05;;;;;;;1.29;100.00;98505.94;5051707;28;20057;-84
2021/11/30 13:37:35;;;;;;;1.45;1.00;;;;;;;1.28;100.00;98514.13;5052348;28;20052;-85
2021/11/30 13:40:03;;;;;;;2.33;0.90;;;;;;;1.30;100.00;98509.47;5054767;28;20083;-85
2021/11/30 13:42:30;;;;;;;1.65;0.90;;;;;;;1.33;100.00;98498.47;5054972;28;20049;-82
2021/11/30 13:44:56;;;;;;;1.30;0.90;;;;;;;1.31;100.00;98477.19;5054816;28;20060;-81
2021/11/30 13:47:23;;;;;;;0.80;0.80;;;;;;;1.51;100.00;98502.13;5052912;28;20114;-81
2021/11/30 13:49:50;;;;;;;0.60;0.60;;;;;;;1.53;100.00;98510.84;5053861;28;20053;-82
2021/11/30 13:52:21;;;;;;;1.65;0.88;;;;;;;1.52;100.00;98497.59;5054599;28;20056;-81
2021/11/30 13:54:59;;;;;;;0.70;0.70;;;;;;;1.53;100.00;98504.66;5054594;28;20107;-81
2021/11/30 13:57:28;;;;;;;0.90;0.90;;;;;;;1.67;100.00;98506.03;5054538;28;20049;-80
2021/11/30 14:00:00;;;;;;;0.80;0.80;;;;;;;1.76;100.00;98519.41;5054446;28;20044;-80
2021/11/30 14:02:37;;;;;;;0.50;0.50;;;;;;;1.81;100.00;98535.06;5054322;28;20048;-81
2021/11/30 14:05:06;;;;;;;0.68;0.68;;;;;;;1.81;100.00;98528.84;5052171;28;20057;-80
2021/11/30 14:07:36;;;;;;;0.57;0.57;;;;;;;1.85;100.00;98530.25;5052331;28;20074;-80
2021/11/30 14:10:14;;;;;;;0.70;0.70;;;;;;;1.93;100.00;98527.69;5054256;28;20586;-80
2021/11/30 14:12:41;;;;;;;0.50;0.50;;;;;;;1.88;100.00;98519.22;5054369;28;20041;-80
2021/11/30 14:15:10;;;;;;;1.20;0.82;;;;;;;1.92;100.00;98521.47;5053398;28;20061;-80
2021/11/30 14:17:37;;;;;;;0.70;0.70;;;;;;;1.87;100.00;98529.13;5053700;28;20463;-80
2021/11/30 14:20:15;;;;;;;1.23;1.13;;;;;;;1.96;100.00;98540.81;5052811;28;20135;-80
2021/11/30 14:22:43;;;;;;;0.88;0.88;;;;;;;2.06;100.00;98543.44;5053808;28;20049;-80
2021/11/30 14:25:13;;;;;;;1.92;0.82;;;;;;;2.04;100.00;98540.09;5053669;28;20071;-80
2021/11/30 14:27:42;;;;;;;1.67;0.95;;;;;;;2.05;100.00;98547.16;5053635;28;20455;-81
2021/11/30 14:30:11;;;;;;;0.75;0.60;;;;;;;2.05;100.00;98550.66;5053228;28;20555;-81
2021/11/30 14:32:39;;;;;;;4.53;0.80;;;;;;;2.06;100.00;98554.19;5053143;28;20053;-80
2021/11/30 14:35:08;;;;;;;1.17;1.00;;;;;;;1.98;100.00;98546.88;5053637;28;20681;-81
2021/11/30 14:37:36;;;;;;;0.90;0.90;;;;;;;2.04;100.00;98543.59;5052215;28;20049;-81
2021/11/30 14:40:20;;;;;;;5.05;0.85;;;;;;;2.09;100.00;98544.03;5052648;28;20189;-79
2021/11/30 14:42:49;;;;;;;1.85;0.65;;;;;;;2.16;100.00;98533.53;5033792;28;20052;-80
2021/11/30 14:45:22;;;;;;;1.40;0.77;;;;;;;2.27;100.00;98544.09;5047452;28;20068;-79
2021/11/30 14:47:52;;;;;;;0.75;0.75;;;;;;;2.23;100.00;98533.78;5052683;28;20045;-79
2021/11/30 14:50:22;;;;;;;0.63;0.63;;;;;;;2.27;100.00;98543.25;5052937;28;20065;-80
2021/11/30 14:52:51;;;;;;;0.95;0.70;;;;;;;2.32;100.00;98549.03;5052599;28;20060;-78
2021/11/30 14:55:24;;;;;;;1.33;1.20;;;;;;;2.15;100.00;98539.88;5053300;28;20052;-80
2021/11/30 14:58:18;;;;;;;0.82;0.82;;;;;;;2.30;100.00;98543.81;5052536;28;20052;-81
2021/11/30 15:00:48;;;;;;;0.73;0.70;;;;;;;2.43;100.00;98566.75;5052562;28;20048;-80
2021/11/30 15:03:18;;;;;;;1.80;0.60;;;;;;;2.28;100.00;98550.31;5053741;28;20585;-81
2021/11/30 15:05:46;;;;;;;;;;;;;;;2.39;100.00;98562.69;5053638;28;20049;-81
2021/11/30 15:08:32;;;;;;;0.75;0.70;;;;;;;2.36;100.00;98547.72;5052500;28;19943;-81
2021/11/30 15:11:05;;;;;;;0.60;0.60;;;;;;;2.46;100.00;98577.19;5051654;28;20048;-80
2021/11/30 15:13:52;;;;;;;0.60;0.60;;;;;;;2.46;100.00;98556.56;5049933;28;20065;-79
2021/11/30 15:16:43;;;;;;;3.05;0.80;;;;;;;2.42;100.00;98563.22;5037539;28;20485;-79
2021/11/30 15:19:19;;;;;;;0.70;0.70;;;;;;;2.46;100.00;98564.63;5034273;28;20049;-79
2021/11/30 15:21:52;;;;;;;4.22;1.52;;;;;;;2.35;100.00;98547.88;5038742;28;20052;-80
2021/11/30 15:24:22;;;;;;;1.85;1.13;;;;;;;2.55;100.00;98581.69;5050506;28;20068;-81
2021/11/30 15:26:51;;;;;;;;;;;;;;;2.56;100.00;98574.47;5051653;28;20119;-81
2021/11/30 15:29:21;;;;;;;1.08;0.63;;;;;;;2.59;100.00;98576.84;5050737;28;19928;-79
2021/11/30 15:31:51;;;;;;;0.70;0.70;;;;;;;2.53;100.00;98561.34;5049056;28;20044;-79
2021/11/30 15:34:17;;;;;;;0.77;0.77;;;;;;;2.46;100.00;98548.53;5050687;28;20084;-80
2021/11/30 15:36:45;;;;;;;0.77;0.77;;;;;;;2.44;100.00;98533.59;5049781;28;20053;-79
2021/11/30 15:39:15;;;;;;;0.70;0.68;;;;;;;2.50;100.00;98567.88;5047492;28;20048;-81
2021/11/30 15:41:44;;;;;;;0.82;0.82;;;;;;;2.60;100.00;98573.19;5043721;28;20421;-79
2021/11/30 15:44:12;;;;;;;0.73;0.73;;;;;;;2.61;100.00;98564.97;5044949;28;20037;-80
2021/11/30 15:46:40;;;;;;;1.05;0.80;;;;;;;2.56;100.00;98566.41;5051359;28;20049;-79
2021/11/30 15:49:09;;;;;;;0.70;0.60;;;;;;;2.66;100.00;98583.31;5051850;28;20132;-80
2021/11/30 15:51:37;;;;;;;0.70;0.70;;;;;;;2.69;100.00;98576.81;5051692;28;20049;-80
2021/11/30 15:54:04;;;;;;;0.93;0.80;;;;;;;2.75;100.00;98606.56;5051841;28;20206;-80
2021/11/30 15:59:17;;;;;;;0.90;0.90;;;;;;;2.75;100.00;98587.78;5050920;28;20091;-80
2021/11/30 16:01:44;;;;;;;0.85;0.85;;;;;;;2.76;100.00;98588.66;5049872;28;20095;-80
2021/11/30 16:04:11;;;;;;;2.30;0.82;;;;;;;2.71;100.00;98593.59;5050857;28;20045;-80
2021/11/30 16:06:38;;;;;;;2.13;0.80;;;;;;;2.69;100.00;98583.00;5051444;28;20409;-80
2021/11/30 16:09:05;;;;;;;1.17;1.00;;;;;;;2.69;100.00;98577.66;5035858;28;20485;-80
2021/11/30 16:11:32;;;;;;;0.77;0.70;;;;;;;2.86;100.00;98592.13;5046831;28;20497;-81
2021/11/30 16:13:59;;;;;;;0.85;0.80;;;;;;;2.83;100.00;98595.94;5050633;28;20051;-80
2021/11/30 16:16:27;;;;;;;1.95;1.45;;;;;;;2.77;100.00;98588.50;5042873;28;20072;-80
2021/11/30 16:18:55;;;;;;;0.82;0.80;;;;;;;2.76;100.00;98596.69;5037698;28;20048;-80
2021/11/30 16:21:21;;;;;;;1.63;1.10;;;;;;;2.83;100.00;98598.63;5045861;28;20053;-80
2021/11/30 16:23:49;;;;;;;2.33;1.38;;;;;;;2.75;100.00;98574.38;5040238;28;20060;-81
2021/11/30 16:26:16;;;;;;;0.60;0.60;;;;;;;2.78;100.00;98576.75;5052026;28;20049;-81
2021/11/30 16:28:43;;;;;;;0.73;0.73;;;;;;;2.85;100.00;98577.00;5050751;28;20049;-80
2021/11/30 16:31:12;;;;;;;0.80;0.80;;;;;;;2.85;100.00;98582.38;5048199;28;20060;-80
2021/11/30 16:33:41;;;;;;;1.75;1.02;;;;;;;2.77;100.00;98583.13;5030854;28;20049;-81
2021/11/30 16:36:09;;;;;;;1.17;1.05;;;;;;;2.78;100.00;98576.75;5047831;28;20048;-80
2021/11/30 16:38:36;;;;;;;1.55;0.93;;;;;;;2.85;100.00;98585.06;5045935;28;20454;-81
2021/11/30 16:41:06;;;;;;;0.80;0.80;;;;;;;2.81;100.00;98581.81;5047646;28;20067;-81
2021/11/30 16:43:33;;;;;;;;;;;;;;;2.90;100.00;98598.03;5053387;28;20045;-80
2021/11/30 16:46:01;;;;;;;0.77;0.77;;;;;;;2.87;100.00;98603.72;5034815;28;19925;-82
2021/11/30 16:48:28;;;;;;;2.53;1.40;;;;;;;2.86;100.00;98580.53;5047053;28;20081;-80
2021/11/30 16:50:56;;;;;;;1.83;1.30;;;;;;;2.79;100.00;98566.88;5034290;28;20456;-80
2021/11/30 16:53:24;;;;;;;0.65;0.65;;;;;;;2.97;100.00;98608.03;5040684;28;20440;-85
2021/11/30 16:55:55;;;;;;;2.38;0.98;;;;;;;2.92;100.00;98579.94;5052775;28;20488;-81
2021/11/30 16:58:22;;;;;;;0.68;0.68;;;;;;;2.95;100.00;98595.72;5051641;28;20053;-81
2021/11/30 17:00:49;;;;;;;0.73;0.73;;;;;;;2.80;100.00;98582.81;5050446;28;20044;-80
2021/11/30 17:03:16;;;;;;;0.75;0.73;;;;;;;2.94;100.00;98584.16;5050160;28;20400;-80
2021/11/30 17:05:43;;;;;;;0.60;0.60;;;;;;;2.94;100.00;98586.00;5050878;28;20044;-81
2021/11/30 17:08:12;;;;;;;2.53;0.90;;;;;;;2.86;100.00;98575.16;5050024;28;20071;-80
2021/11/30 17:10:39;;;;;;;0.60;0.60;;;;;;;2.93;100.00;98585.13;5050164;28;20045;-81
2021/11/30 17:13:06;;;;;;;1.80;1.20;;;;;;;2.90;100.00;98576.56;5053472;28;20137;-80
2021/11/30 17:15:33;;;;;;;1.63;0.70;;;;;;;2.94;100.00;98577.94;5054843;28;20053;-81
2021/11/30 17:18:01;;;;;;;1.30;0.60;;;;;;;2.95;100.00;98596.59;5055153;28;20052;-80
2021/11/30 17:20:28;;;;;;;0.50;0.50;;;;;;;2.88;100.00;98594.66;5054637;28;20547;-80
2021/11/30 17:22:57;;;;;;;1.92;0.77;;;;;;;3.00;100.00;98614.94;5055120;28;20053;-79
2021/11/30 17:25:25;;;;;;;0.68;0.60;;;;;;;2.90;100.00;98598.88;5053489;28;20053;-80
2021/11/30 17:27:52;;;;;;;1.30;0.70;;;;;;;2.92;100.00;98609.47;5054062;28;20060;-79
2021/11/30 17:30:29;;;;;;;0.70;0.70;;;;;;;3.02;100.00;98612.94;5054497;28;20059;-80
2021/11/30 17:32:56;;;;;;;0.70;0.70;;;;;;;3.07;100.00;98626.78;5054652;28;20132;-80
2021/11/30 17:35:24;;;;;;;0.60;0.60;;;;;;;3.07;100.00;98602.59;5055066;28;20496;-83
2021/11/30 17:37:51;;;;;;;0.85;0.70;;;;;;;2.96;100.00;98592.91;5054103;28;20519;-80
2021/11/30 17:40:18;;;;;;;1.95;0.68;;;;;;;2.97;100.00;98604.50;5054428;28;20091;-79
2021/11/30 17:42:47;;;;;;;1.52;0.80;;;;;;;3.06;100.00;98621.56;5053485;28;20231;-79
2021/11/30 17:45:14;;;;;;;0.80;0.80;;;;;;;3.01;100.00;98598.69;5054212;28;20041;-79
2021/11/30 17:47:41;;;;;;;0.70;0.70;;;;;;;3.04;100.00;98623.53;5054152;28;20074;-78
2021/11/30 17:50:10;;;;;;;1.50;0.80;;;;;;;3.13;100.00;98628.88;5054311;28;20317;-80
2021/11/30 17:52:37;;;;;;;1.05;0.63;;;;;;;3.11;100.00;98613.88;5054766;28;20045;-79
2021/11/30 17:55:06;;;;;;;1.15;0.90;;;;;;;3.16;100.00;98615.13;5054014;28;20060;-79
2021/11/30 17:57:33;;;;;;;1.17;0.77;;;;;;;3.11;100.00;98617.41;5054500;28;20052;-78
2021/11/30 18:00:01;;;;;;;0.80;0.80;;;;;;;3.10;100.00;98599.63;5052517;28;20052;-78
2021/11/30 18:02:29;;;;;;;1.17;0.55;;;;;;;3.19;100.00;98616.66;5054518;28;20068;-79
2021/11/30 18:04:56;;;;;;;0.75;0.60;;;;;;;3.20;100.00;98599.53;5053780;28;20048;-79
2021/11/30 18:07:25;;;;;;;0.80;0.80;;;;;;;3.16;100.00;98604.38;5054428;28;20122;-79
2021/11/30 18:09:55;;;;;;;1.52;0.88;;;;;;;3.15;100.00;98600.00;5054432;28;20045;-79
2021/11/30 18:12:22;;;;;;;5.22;0.68;;;;;;;3.18;100.00;98610.44;5053818;28;20060;-81
2021/11/30 18:14:49;;;;;;;0.50;0.50;;;;;;;3.30;100.00;98613.75;5053968;28;20081;-79
2021/11/30 18:17:17;;;;;;;0.68;0.68;;;;;;;3.28;100.00;98609.53;5052325;28;20377;-79
2021/11/30 18:19:44;;;;;;;0.55;0.55;;;;;;;3.32;100.00;98627.03;5054271;28;20072;-79
2021/11/30 18:22:11;;;;;;;1.25;0.80;;;;;;;3.33;100.00;98624.19;5052997;28;20119;-79
2021/11/30 18:24:40;;;;;;;1.10;0.70;;;;;;;3.39;100.00;98636.19;5053793;28;20053;-79
2021/11/30 18:27:07;;;;;;;1.63;0.77;;;;;;;3.30;100.00;98608.38;5053873;28;20045;-79
2021/11/30 18:29:35;;;;;;;0.82;0.80;;;;;;;3.28;100.00;98606.84;5053043;28;20075;-79
2021/11/30 18:32:02;;;;;;;0.63;0.63;;;;;;;3.38;100.00;98617.53;5054105;28;20138;-79
2021/11/30 18:34:32;;;;;;;1.67;0.70;;;;;;;3.33;100.00;98616.13;5052646;28;20037;-79
2021/11/30 18:36:59;;;;;;;0.60;0.50;;;;;;;3.48;100.00;98640.66;5053677;28;20496;-79
2021/11/30 18:39:26;;;;;;;0.70;0.70;;;;;;;3.47;100.00;98649.69;5052415;28;20049;-79
2021/11/30 18:41:53;;;;;;;0.60;0.60;;;;;;;3.47;100.00;98635.44;5053803;28;20128;-79
2021/11/30 18:44:20;;;;;;;2.15;0.80;;;;;;;3.45;100.00;98629.38;5053132;28;20041;-79
2021/11/30 18:46:46;;;;;;;1.02;0.82;;;;;;;3.48;100.00;98642.50;5053327;28;20197;-79
2021/11/30 18:49:17;;;;;;;1.23;0.80;;;;;;;3.59;100.00;98647.63;5050611;28;20045;-79
2021/11/30 18:51:45;;;;;;;1.05;0.90;;;;;;;3.58;100.00;98664.75;5053390;28;20037;-79
2021/11/30 18:54:13;;;;;;;0.52;0.52;;;;;;;3.52;100.00;98642.03;5052882;28;20045;-79
2021/11/30 18:56:40;;;;;;;3.47;1.00;;;;;;;3.61;100.00;98664.44;5052195;28;20052;-79
2021/11/30 18:59:07;;;;;;;2.05;1.10;;;;;;;3.53;100.00;98643.72;5052898;28;20045;-79
2021/11/30 19:01:33;;;;;;;1.30;1.20;;;;;;;3.52;100.00;98646.53;5053386;28;20257;-79
2021/11/30 19:04:00;;;;;;;3.72;1.73;;;;;;;3.70;100.00;98660.88;5052810;28;20542;-79
2021/11/30 19:06:29;;;;;;;1.80;1.08;;;;;;;3.70;100.00;98660.00;5052881;28;20056;-80
2021/11/30 19:09:02;;;;;;;2.08;1.23;;;;;;;3.61;100.00;98653.69;5051267;28;20227;-79
2021/11/30 19:11:29;;;;;;;0.82;0.60;;;;;;;3.83;100.00;98670.38;5053145;28;20147;-79
2021/11/30 19:13:56;;;;;;;0.45;0.45;;;;;;;3.82;100.00;98668.69;5052319;28;20179;-79
2021/11/30 19:16:23;;;;;;;0.95;0.65;;;;;;;3.77;100.00;98661.09;5053750;28;20103;-79
2021/11/30 19:18:58;;;;;;;0.80;0.80;;;;;;;3.69;100.00;98653.78;5052637;28;20416;-79
2021/11/30 19:21:24;;;;;;;0.68;0.68;;;;;;;3.80;100.00;98662.63;5052847;28;20056;-79
2021/11/30 19:23:51;;;;;;;2.33;1.15;;;;;;;3.81;100.00;98666.97;5051830;28;20253;-80
2021/11/30 19:26:21;;;;;;;1.10;0.93;;;;;;;3.83;100.00;98665.00;5052582;28;20455;-79
2021/11/30 19:28:48;;;;;;;2.90;0.85;;;;;;;3.86;100.00;98665.53;5052099;28;20055;-79
2021/11/30 19:31:15;;;;;;;1.10;1.00;;;;;;;3.85;100.00;98663.00;5052218;28;20087;-80
2021/11/30 19:33:44;;;;;;;1.70;0.88;;;;;;;3.83;100.00;98660.47;5053056;28;20076;-79
2021/11/30 19:36:11;;;;;;;2.35;1.00;;;;;;;3.71;100.00;98653.63;5051534;28;20041;-79
2021/11/30 19:38:38;;;;;;;2.13;1.13;;;;;;;3.62;100.00;98663.47;5052037;28;20071;-80
2021/11/30 19:41:06;;;;;;;5.15;2.65;;;;;;;3.65;100.00;98662.31;5050412;28;20167;-79
2021/11/30 19:43:38;;;;;;;1.90;1.35;;;;;;;3.59;100.00;98650.31;5045626;28;20110;-80
2021/11/30 19:46:06;;;;;;;2.70;1.10;;;;;;;3.65;100.00;98651.56;5052513;28;20049;-79
2021/11/30 19:48:37;;;;;;;2.47;1.10;;;;;;;3.42;100.00;98643.09;5052199;28;20045;-79
2021/11/30 19:51:06;;;;;;;1.20;1.00;;;;;;;3.44;100.00;98657.22;5051158;28;20480;-79
2021/11/30 19:53:33;;;;;;;1.83;1.17;;;;;;;3.29;100.00;98648.84;5052493;28;20091;-79
2021/11/30 19:56:00;;;;;;;1.75;1.33;;;;;;;3.40;100.00;98653.16;5052372;28;20102;-79
2021/11/30 19:58:26;;;;;;;1.50;1.40;;;;;;;3.25;100.00;98653.69;5049585;28;20090;-79
2021/11/30 20:06:24;;;;;;;1.80;1.30;;;;;;;3.25;100.00;98636.69;5051970;28;20182;-79
2021/11/30 20:08:51;;;;;;;2.58;1.60;;;;;;;3.30;100.00;98655.91;5051885;28;20041;-79
2021/11/30 20:11:18;;;;;;;2.88;2.20;;;;;;;3.23;100.00;98631.47;5052674;28;20061;-79
2021/11/30 20:13:45;;;;;;;2.20;1.50;;;;;;;3.23;100.00;98631.47;5049520;28;20118;-79
2021/11/30 20:16:14;;;;;;;3.05;1.65;;;;;;;3.38;100.00;98658.69;5051859;28;20060;-79
2021/11/30 20:18:41;;;;;;;1.40;1.30;;;;;;;3.41;100.00;98636.88;5051405;28;20514;-79
2021/11/30 20:21:10;;;;;;;0.70;0.70;;;;;;;3.50;100.00;98633.25;5052047;28;20060;-80
2021/11/30 20:23:37;;;;;;;0.47;0.47;;;;;;;3.78;100.00;98653.84;5051666;28;20041;-80
2021/11/30 20:26:04;;;;;;;0.70;0.70;;;;;;;3.81;100.00;98624.81;5052066;28;20053;-80
2021/11/30 20:28:31;;;;;;;0.80;0.80;;;;;;;3.90;100.00;98636.50;5049699;28;20132;-80
2021/11/30 20:30:59;;;;;;;2.05;0.80;;;;;;;3.86;100.00;98645.88;5051496;28;20553;-80
2021/11/30 20:33:27;;;;;;;1.35;1.02;;;;;;;3.76;100.00;98631.66;5050963;28;20048;-80
2021/11/30 20:41:22;;;;;;;1.75;1.02;;;;;;;3.73;100.00;98648.94;5050513;28;20052;-80
2021/11/30 20:43:49;;;;;;;1.40;1.10;;;;;;;3.84;100.00;98654.09;5050488;28;20060;-80
2021/11/30 20:46:18;;;;;;;2.22;1.85;;;;;;;3.76;100.00;98645.94;5050544;28;20048;-80
2021/11/30 20:48:46;;;;;;;2.93;1.30;;;;;;;3.64;100.00;98653.38;5050718;28;20057;-80
2021/11/30 20:51:13;;;;;;;1.33;1.02;;;;;;;3.56;100.00;98657.84;5051313;28;20318;-80